createdAt,value
2023-01-21T00:00:30.523Z,61.37
2023-01-21T00:03:32.078Z,61.36
2023-01-21T00:06:33.532Z,62.10
2023-01-21T00:09:35.151Z,61.54
2023-01-21T00:12:37.899Z,61.26
2023-01-21T00:15:39.598Z,60.99
2023-01-21T00:18:41.552Z,60.66
2023-01-21T00:21:43.042Z,60.58
2023-01-21T00:24:44.593Z,61.05
2023-01-21T00:27:46.120Z,60.81
2023-01-21T00:30:47.633Z,60.25
2023-01-21T00:33:50.272Z,60.44
2023-01-21T00:36:51.744Z,60.46
2023-01-21T00:39:53.207Z,60.13
2023-01-21T00:42:54.665Z,60.35
2023-01-21T00:45:56.333Z,59.65
2023-01-21T00:48:57.857Z,59.92
2023-01-21T00:51:59.386Z,59.34
2023-01-21T00:55:00.877Z,59.59
2023-01-21T00:58:02.368Z,59.96
2023-01-21T01:01:09.166Z,60.44
2023-01-21T01:04:14.459Z,60.39
2023-01-21T01:07:15.888Z,59.67
2023-01-21T01:10:17.812Z,60.18
2023-01-21T01:13:19.354Z,60.40
2023-01-21T01:16:21.961Z,59.97
2023-01-21T01:19:23.428Z,60.43
2023-01-21T01:22:25.047Z,60.12
2023-01-21T01:25:26.510Z,59.29
2023-01-21T01:28:29.518Z,59.73
2023-01-21T01:31:31.037Z,59.88
2023-01-21T01:34:32.517Z,60.00
2023-01-21T01:37:33.990Z,60.25
2023-01-21T01:40:35.783Z,59.26
2023-01-21T01:43:58.861Z,60.38
2023-01-21T01:47:02.385Z,60.27
2023-01-21T01:50:08.925Z,59.52
2023-01-21T01:53:13.668Z,60.04
2023-01-21T01:56:16.159Z,59.03
2023-01-21T01:59:18.618Z,59.27
2023-01-21T02:02:20.319Z,58.90
2023-01-21T02:05:21.793Z,60.04
2023-01-21T02:08:24.670Z,59.04
2023-01-21T02:11:26.185Z,59.29
2023-01-21T02:14:29.720Z,59.93
2023-01-21T02:17:51.011Z,59.91
2023-01-21T02:21:10.657Z,59.51
2023-01-21T02:24:43.208Z,60.34
2023-01-21T02:28:15.531Z,60.22
2023-01-21T02:31:40.209Z,59.32
2023-01-21T02:34:52.627Z,58.73
2023-01-21T02:38:02.719Z,58.32
2023-01-21T02:41:23.083Z,58.75
2023-01-21T02:44:43.080Z,59.68
2023-01-21T02:47:56.294Z,59.67
2023-01-21T02:50:58.286Z,59.42
2023-01-21T02:53:59.747Z,59.71
2023-01-21T02:57:01.310Z,59.42
2023-01-21T03:00:09.717Z,60.31
2023-01-21T03:03:23.275Z,60.36
2023-01-21T03:07:02.374Z,60.71
2023-01-21T03:10:16.557Z,60.54
2023-01-21T03:14:08.847Z,59.42
2023-01-21T03:17:41.520Z,59.01
2023-01-21T03:20:47.538Z,60.09
2023-01-21T03:23:51.477Z,60.15
2023-01-21T03:26:57.128Z,59.84
2023-01-21T03:30:04.721Z,60.64
2023-01-21T03:33:08.173Z,61.17
2023-01-21T03:36:23.412Z,60.22
2023-01-21T03:40:03.199Z,60.88
2023-01-21T03:43:04.663Z,61.08
2023-01-21T03:46:24.563Z,61.32
2023-01-21T03:49:33.579Z,61.78
2023-01-21T03:52:38.491Z,61.82
2023-01-21T03:55:39.970Z,61.14
2023-01-21T03:58:41.425Z,60.87
2023-01-21T04:01:43.057Z,60.73
2023-01-21T04:04:44.650Z,61.01
2023-01-21T04:07:46.115Z,60.59
2023-01-21T04:10:47.536Z,60.77
2023-01-21T04:13:48.979Z,61.93
2023-01-21T04:16:50.423Z,61.62
2023-01-21T04:19:51.915Z,61.23
2023-01-21T04:22:53.400Z,61.78
2023-01-21T04:25:54.870Z,63.23
2023-01-21T04:28:56.351Z,62.91
2023-01-21T04:31:57.824Z,62.15
2023-01-21T04:34:59.302Z,62.42
2023-01-21T04:38:00.745Z,62.63
2023-01-21T04:41:02.476Z,61.72
2023-01-21T04:44:04.218Z,61.67
2023-01-21T04:47:05.678Z,61.73
2023-01-21T04:50:07.524Z,61.78
2023-01-21T04:53:09.053Z,62.52
2023-01-21T04:56:10.518Z,62.40
2023-01-21T04:59:12.147Z,62.15
2023-01-21T05:02:13.885Z,61.48
2023-01-21T05:05:15.473Z,62.07
2023-01-21T05:08:16.924Z,62.21
2023-01-21T05:11:20.093Z,63.29
2023-01-21T05:14:21.608Z,63.36
2023-01-21T05:17:23.569Z,63.06
2023-01-21T05:20:25.051Z,63.66
2023-01-21T05:23:26.507Z,62.96
2023-01-21T05:26:27.940Z,63.78
2023-01-21T05:29:29.391Z,63.29
2023-01-21T05:32:30.897Z,63.00
2023-01-21T05:35:34.751Z,63.61
2023-01-21T05:38:36.161Z,62.68
2023-01-21T05:41:37.606Z,63.04
2023-01-21T05:44:39.068Z,62.33
2023-01-21T05:47:40.857Z,62.42
2023-01-21T05:50:42.397Z,61.71
2023-01-21T05:53:44.240Z,62.31
2023-01-21T05:56:45.733Z,61.87
2023-01-21T05:59:47.218Z,62.06
2023-01-21T06:02:48.698Z,62.59
2023-01-21T06:05:50.857Z,62.36
2023-01-21T06:08:52.475Z,63.25
2023-01-21T06:11:53.930Z,62.27
2023-01-21T06:14:55.415Z,63.36
2023-01-21T06:17:57.052Z,63.55
2023-01-21T06:21:00.249Z,62.94
2023-01-21T06:24:02.544Z,63.02
2023-01-21T06:27:03.958Z,62.53
2023-01-21T06:30:10.285Z,61.99
2023-01-21T06:33:11.793Z,62.23
2023-01-21T06:36:13.371Z,63.24
2023-01-21T06:39:14.840Z,64.19
2023-01-21T06:42:17.911Z,63.90
2023-01-21T06:45:19.405Z,63.24
2023-01-21T06:48:20.878Z,63.67
2023-01-21T06:51:22.380Z,63.02
2023-01-21T06:54:23.951Z,63.21
2023-01-21T06:57:25.499Z,62.55
2023-01-21T07:00:26.968Z,62.30
2023-01-21T07:03:29.218Z,62.60
2023-01-21T07:06:30.784Z,63.33
2023-01-21T07:09:32.243Z,64.41
2023-01-21T07:12:33.748Z,64.45
2023-01-21T07:15:35.206Z,63.95
2023-01-21T07:18:36.698Z,63.00
2023-01-21T07:21:41.173Z,62.88
2023-01-21T07:24:42.662Z,62.94
2023-01-21T07:27:44.155Z,62.40
2023-01-21T07:30:45.735Z,62.34
2023-01-21T07:33:47.176Z,63.38
2023-01-21T07:36:48.798Z,64.36
2023-01-21T07:39:50.243Z,63.76
2023-01-21T07:42:53.916Z,63.64
2023-01-21T07:45:58.502Z,63.21
2023-01-21T07:49:01.598Z,62.86
2023-01-21T07:52:03.409Z,62.45
2023-01-21T07:55:05.329Z,63.45
2023-01-21T07:58:06.848Z,62.61
2023-01-21T08:01:09.545Z,63.11
2023-01-21T08:04:10.985Z,62.90
2023-01-21T08:07:13.342Z,62.85
2023-01-21T08:10:15.296Z,62.92
2023-01-21T08:13:16.788Z,62.62
2023-01-21T08:16:18.255Z,62.92
2023-01-21T08:19:19.894Z,62.99
2023-01-21T08:22:21.417Z,63.02
2023-01-21T08:25:22.840Z,63.20
2023-01-21T08:28:24.323Z,62.57
2023-01-21T08:31:25.765Z,63.75
2023-01-21T08:34:27.354Z,64.10
2023-01-21T08:37:28.797Z,63.77
2023-01-21T08:40:30.641Z,64.08
2023-01-21T08:43:32.166Z,63.10
2023-01-21T08:46:34.240Z,62.24
2023-01-21T08:49:35.701Z,61.56
2023-01-21T08:52:37.523Z,61.58
2023-01-21T08:55:39.123Z,62.43
2023-01-21T08:58:40.599Z,61.75
2023-01-21T09:01:42.432Z,61.25
2023-01-21T09:04:43.969Z,61.47
2023-01-21T09:07:46.158Z,60.97
2023-01-21T09:11:03.133Z,60.82
2023-01-21T09:14:04.608Z,60.26
2023-01-21T09:17:06.090Z,60.57
2023-01-21T09:20:08.140Z,61.50
2023-01-21T09:23:24.217Z,61.35
2023-01-21T09:26:51.004Z,61.42
2023-01-21T09:29:52.466Z,60.93
2023-01-21T09:32:53.929Z,61.78
2023-01-21T09:35:57.537Z,62.50
2023-01-21T09:38:59.461Z,62.91
2023-01-21T09:42:00.990Z,63.47
2023-01-21T09:45:03.889Z,61.76
2023-01-21T09:48:08.104Z,62.24
2023-01-21T09:51:26.098Z,62.18
2023-01-21T09:54:31.325Z,60.11
2023-01-21T09:57:39.905Z,61.41
2023-01-21T10:00:51.632Z,59.81
2023-01-21T10:04:03.104Z,61.59
2023-01-21T10:07:11.479Z,60.32
2023-01-21T10:10:24.447Z,58.90
2023-01-21T10:13:40.486Z,59.15
2023-01-21T10:16:48.240Z,60.18
2023-01-21T10:20:31.595Z,58.52
2023-01-21T10:23:57.447Z,59.13
2023-01-21T10:27:00.160Z,59.48
2023-01-21T10:30:21.441Z,60.40
2023-01-21T10:33:26.089Z,59.79
2023-01-21T10:36:49.312Z,59.65
2023-01-21T10:40:01.911Z,58.73
2023-01-21T10:43:12.641Z,59.89
2023-01-21T10:46:36.209Z,57.55
2023-01-21T10:49:52.965Z,57.62
2023-01-21T10:53:22.248Z,58.77
2023-01-21T10:56:42.191Z,58.59
2023-01-21T10:59:43.959Z,57.77
2023-01-21T11:02:50.430Z,57.76
2023-01-21T11:05:52.125Z,56.96
2023-01-21T11:09:00.862Z,57.96
2023-01-21T11:12:02.980Z,57.94
2023-01-21T11:15:14.339Z,57.58
2023-01-21T11:18:45.170Z,56.73
2023-01-21T11:22:19.498Z,56.06
2023-01-21T11:25:35.850Z,57.15
2023-01-21T11:28:37.374Z,57.07
2023-01-21T11:31:40.537Z,57.73
2023-01-21T11:34:51.099Z,58.03
2023-01-21T11:37:52.591Z,57.58
2023-01-21T11:41:12.491Z,57.97
2023-01-21T11:44:18.622Z,58.13
2023-01-21T11:47:53.938Z,59.25
2023-01-21T11:51:06.879Z,58.88
2023-01-21T11:54:23.279Z,58.37
2023-01-21T11:57:28.559Z,59.18
2023-01-21T12:00:32.209Z,58.19
2023-01-21T12:03:45.759Z,57.40
2023-01-21T12:06:48.746Z,57.89
2023-01-21T12:10:13.318Z,57.42
2023-01-21T12:13:36.462Z,58.17
2023-01-21T12:16:48.056Z,57.50
2023-01-21T12:20:14.214Z,58.46
2023-01-21T12:23:49.737Z,58.35
2023-01-21T12:27:00.775Z,59.46
2023-01-21T12:30:19.139Z,58.52
2023-01-21T12:33:41.373Z,58.55
2023-01-21T12:36:49.638Z,57.41
2023-01-21T12:39:55.536Z,58.61
2023-01-21T12:43:03.159Z,59.46
2023-01-21T12:46:14.893Z,58.82
2023-01-21T12:49:26.331Z,58.51
2023-01-21T12:52:40.538Z,58.31
2023-01-21T12:56:00.842Z,58.96
2023-01-21T12:59:11.731Z,58.81
2023-01-21T13:02:35.659Z,60.09
2023-01-21T13:05:50.332Z,60.99
2023-01-21T13:09:20.312Z,60.79
2023-01-21T13:12:25.802Z,60.79
2023-01-21T13:15:34.981Z,60.58
2023-01-21T13:18:39.236Z,61.60
2023-01-21T13:22:04.757Z,61.24
2023-01-21T13:25:27.402Z,61.93
2023-01-21T13:28:35.981Z,61.92
2023-01-21T13:32:10.239Z,60.50
2023-01-21T13:35:30.385Z,61.11
2023-01-21T13:38:45.994Z,62.11
2023-01-21T13:42:20.647Z,60.68
2023-01-21T13:45:37.549Z,61.71
2023-01-21T13:49:04.093Z,61.61
2023-01-21T13:52:16.093Z,60.91
2023-01-21T13:55:20.730Z,61.51
2023-01-21T13:58:40.336Z,61.73
2023-01-21T14:01:56.825Z,62.09
2023-01-21T14:05:05.986Z,61.41
2023-01-21T14:08:26.240Z,61.31
2023-01-21T14:11:41.558Z,62.01
2023-01-21T14:14:55.030Z,62.81
2023-01-21T14:18:15.783Z,62.03
2023-01-21T14:21:34.833Z,62.97
2023-01-21T14:24:48.221Z,62.57
2023-01-21T14:28:07.782Z,63.73
2023-01-21T14:31:17.360Z,63.47
2023-01-21T14:34:30.184Z,63.17
2023-01-21T14:37:46.474Z,64.03
2023-01-21T14:40:50.648Z,63.66
2023-01-21T14:43:52.917Z,65.30
2023-01-21T14:47:10.591Z,64.46
2023-01-21T14:50:48.330Z,64.76
2023-01-21T14:53:52.316Z,65.67
2023-01-21T14:57:04.165Z,64.94
2023-01-21T15:00:28.206Z,64.52
2023-01-21T15:03:31.480Z,65.02
2023-01-21T15:06:38.606Z,64.97
2023-01-21T15:09:50.282Z,65.86
2023-01-21T15:13:02.087Z,66.09
2023-01-21T15:16:32.384Z,65.75
2023-01-21T15:19:35.487Z,65.29
2023-01-21T15:22:41.215Z,64.99
2023-01-21T15:26:07.372Z,64.57
2023-01-21T15:29:33.471Z,65.83
2023-01-21T15:32:36.690Z,65.53
2023-01-21T15:35:40.667Z,64.89
2023-01-21T15:38:42.674Z,64.94
2023-01-21T15:42:06.242Z,65.27
2023-01-21T15:45:28.268Z,64.47
2023-01-21T15:48:57.575Z,66.09
2023-01-21T15:52:21.324Z,65.83
2023-01-21T15:55:44.668Z,65.78
2023-01-21T15:59:14.616Z,65.85
2023-01-21T16:02:21.651Z,65.48
2023-01-21T16:05:54.262Z,66.35
2023-01-21T16:09:07.106Z,65.19
2023-01-21T16:12:23.039Z,66.49
2023-01-21T16:15:35.284Z,65.70
2023-01-21T16:19:17.544Z,65.09
2023-01-21T16:22:25.555Z,65.52
2023-01-21T16:25:27.464Z,65.33
2023-01-21T16:28:49.070Z,65.13
2023-01-21T16:31:53.174Z,65.66
2023-01-21T16:34:54.891Z,65.08
2023-01-21T16:37:57.296Z,65.69
2023-01-21T16:41:07.934Z,66.30
2023-01-21T16:44:16.505Z,65.48
2023-01-21T16:47:33.640Z,65.44
2023-01-21T16:50:35.137Z,65.33
2023-01-21T16:53:36.607Z,65.30
2023-01-21T16:56:47.795Z,65.21
2023-01-21T16:59:49.377Z,66.30
2023-01-21T17:02:51.155Z,65.58
2023-01-21T17:05:54.929Z,65.59
2023-01-21T17:09:06.980Z,66.60
2023-01-21T17:12:16.671Z,65.96
2023-01-21T17:15:40.925Z,65.92
2023-01-21T17:18:52.216Z,66.04
2023-01-21T17:21:59.992Z,66.78
2023-01-21T17:25:07.548Z,67.02
2023-01-21T17:28:28.882Z,66.82
2023-01-21T17:31:35.589Z,67.44
2023-01-21T17:34:39.873Z,66.39
2023-01-21T17:38:02.135Z,67.22
2023-01-21T17:41:08.160Z,67.69
2023-01-21T17:44:29.992Z,67.00
2023-01-21T17:47:41.773Z,66.77
2023-01-21T17:50:50.150Z,67.08
2023-01-21T17:53:57.830Z,66.36
2023-01-21T17:57:00.308Z,66.16
2023-01-21T18:00:02.001Z,67.79
2023-01-21T18:03:05.717Z,67.05
2023-01-21T18:06:17.255Z,66.19
2023-01-21T18:09:20.859Z,66.17
2023-01-21T18:12:22.354Z,65.88
2023-01-21T18:15:24.818Z,66.10
2023-01-21T18:18:30.259Z,65.66
2023-01-21T18:21:31.777Z,65.30
2023-01-21T18:24:35.449Z,65.51
2023-01-21T18:27:36.988Z,66.51
2023-01-21T18:30:38.512Z,66.08
2023-01-21T18:33:40.433Z,65.52
2023-01-21T18:36:42.275Z,66.03
2023-01-21T18:39:44.031Z,66.09
2023-01-21T18:42:46.411Z,66.58
2023-01-21T18:45:47.932Z,65.86
2023-01-21T18:48:49.432Z,66.37
2023-01-21T18:51:50.932Z,65.73
2023-01-21T18:54:52.395Z,66.21
2023-01-21T18:57:55.646Z,65.81
2023-01-21T19:00:57.166Z,66.87
2023-01-21T19:03:58.748Z,66.27
2023-01-21T19:07:00.357Z,66.41
2023-01-21T19:10:02.428Z,67.16
2023-01-21T19:13:04.151Z,67.01
2023-01-21T19:16:09.229Z,67.39
2023-01-21T19:19:15.988Z,66.58
2023-01-21T19:22:17.792Z,67.45
2023-01-21T19:25:21.203Z,67.58
2023-01-21T19:28:24.680Z,67.12
2023-01-21T19:31:26.358Z,67.15
2023-01-21T19:34:27.961Z,67.99
2023-01-21T19:37:29.626Z,67.98
2023-01-21T19:40:31.356Z,66.75
2023-01-21T19:43:33.071Z,67.90
2023-01-21T19:46:36.273Z,67.25
2023-01-21T19:49:37.749Z,67.49
2023-01-21T19:52:39.398Z,67.49
2023-01-21T19:55:41.771Z,67.64
2023-01-21T19:58:43.157Z,67.33
2023-01-21T20:01:45.632Z,67.65
2023-01-21T20:04:47.151Z,66.46
2023-01-21T20:07:50.691Z,66.38
2023-01-21T20:10:52.326Z,66.79
2023-01-21T20:13:53.887Z,67.60
2023-01-21T20:16:56.451Z,66.76
2023-01-21T20:19:57.939Z,67.64
2023-01-21T20:23:01.019Z,66.69
2023-01-21T20:26:06.813Z,66.53
2023-01-21T20:29:12.766Z,67.60
2023-01-21T20:32:14.191Z,67.28
2023-01-21T20:35:18.057Z,66.76
2023-01-21T20:38:25.886Z,66.18
2023-01-21T20:41:27.416Z,67.31
2023-01-21T20:44:28.878Z,66.65
2023-01-21T20:47:38.102Z,67.52
2023-01-21T20:50:40.289Z,67.71
2023-01-21T20:53:41.786Z,67.19
2023-01-21T20:56:43.259Z,67.16
2023-01-21T20:59:44.714Z,66.94
2023-01-21T21:02:46.328Z,68.28
2023-01-21T21:05:48.991Z,67.92
2023-01-21T21:08:51.096Z,68.78
2023-01-21T21:11:52.567Z,68.47
2023-01-21T21:14:54.074Z,68.05
2023-01-21T21:17:56.276Z,68.59
2023-01-21T21:20:57.730Z,68.50
2023-01-21T21:23:59.526Z,68.91
2023-01-21T21:27:01.161Z,69.13
2023-01-21T21:30:04.032Z,69.16
2023-01-21T21:33:07.927Z,69.58
2023-01-21T21:36:13.522Z,68.81
2023-01-21T21:39:19.149Z,69.00
2023-01-21T21:42:46.872Z,68.70
2023-01-21T21:46:06.976Z,68.93
2023-01-21T21:49:08.589Z,69.48
2023-01-21T21:52:10.127Z,68.83
2023-01-21T21:55:14.471Z,70.24
2023-01-21T21:58:15.955Z,69.73
2023-01-21T22:01:25.763Z,68.99
2023-01-21T22:04:27.582Z,69.15
2023-01-21T22:07:29.196Z,68.89
2023-01-21T22:10:30.764Z,69.79
2023-01-21T22:13:34.967Z,68.83
2023-01-21T22:16:36.609Z,69.08
2023-01-21T22:19:38.170Z,68.95
2023-01-21T22:22:39.964Z,69.42
2023-01-21T22:25:41.613Z,70.32
2023-01-21T22:28:43.938Z,70.04
2023-01-21T22:31:45.743Z,70.13
2023-01-21T22:34:47.494Z,70.17
2023-01-21T22:37:48.964Z,69.93
2023-01-21T22:40:54.556Z,69.88
2023-01-21T22:43:57.175Z,70.25
2023-01-21T22:46:58.950Z,70.42
2023-01-21T22:50:00.478Z,70.08
2023-01-21T22:53:01.946Z,70.60
2023-01-21T22:56:05.315Z,70.06
2023-01-21T22:59:06.762Z,69.76
2023-01-21T23:02:08.302Z,70.02
2023-01-21T23:05:09.875Z,69.06
2023-01-21T23:08:12.087Z,68.85
2023-01-21T23:11:15.435Z,69.44
2023-01-21T23:14:17.303Z,69.48
2023-01-21T23:17:18.808Z,69.86
2023-01-21T23:20:21.029Z,69.73
2023-01-21T23:23:23.236Z,69.41
2023-01-21T23:26:24.743Z,70.13
2023-01-21T23:29:26.227Z,69.42
2023-01-21T23:32:27.697Z,69.00
2023-01-21T23:35:29.584Z,68.86
2023-01-21T23:38:31.072Z,69.46
2023-01-21T23:41:32.548Z,68.97
2023-01-21T23:44:34.032Z,69.50
2023-01-21T23:47:35.469Z,69.38
2023-01-21T23:50:36.908Z,68.85
2023-01-21T23:53:38.424Z,68.26
2023-01-21T23:56:40.303Z,68.87
2023-01-21T23:59:41.755Z,69.81
